createdAt,value
2018-08-04T00:01:38.828Z,26.55
2018-08-04T00:04:09.504Z,26.69
2018-08-04T00:06:39.991Z,26.49
2018-08-04T00:09:13.013Z,26.38
2018-08-04T00:11:43.700Z,26.19
2018-08-04T00:14:13.989Z,26.19
2018-08-04T00:16:44.370Z,26.18
2018-08-04T00:19:14.716Z,26.16
2018-08-04T00:21:45.091Z,26.27
2018-08-04T00:24:15.326Z,26.50
2018-08-04T00:26:46.130Z,26.69
2018-08-04T00:29:16.714Z,26.46
2018-08-04T00:31:47.269Z,26.12
2018-08-04T00:34:18.001Z,26.05
2018-08-04T00:36:48.877Z,26.18
2018-08-04T00:39:19.311Z,26.06
2018-08-04T00:41:50.014Z,25.94
2018-08-04T00:44:20.614Z,26.01
2018-08-04T00:46:51.566Z,26.08
2018-08-04T00:49:22.301Z,26.15
2018-08-04T00:51:53.392Z,25.76
2018-08-04T00:54:23.972Z,25.58
2018-08-04T00:56:54.649Z,25.44
2018-08-04T00:59:25.420Z,25.67
2018-08-04T01:01:56.334Z,25.69
2018-08-04T01:04:27.038Z,25.65
2018-08-04T01:06:57.869Z,24.80
2018-08-04T01:09:28.652Z,24.56
2018-08-04T01:11:59.187Z,24.67
2018-08-04T01:14:29.502Z,24.77
2018-08-04T01:17:00.041Z,24.96
2018-08-04T01:19:30.545Z,24.65
2018-08-04T01:22:01.112Z,24.36
2018-08-04T01:24:31.417Z,24.31
2018-08-04T01:27:01.777Z,24.17
2018-08-04T01:29:32.340Z,24.29
2018-08-04T01:32:03.050Z,24.53
2018-08-04T01:34:33.604Z,24.46
2018-08-04T01:37:04.287Z,24.75
2018-08-04T01:39:34.566Z,24.70
2018-08-04T01:42:05.215Z,24.70
2018-08-04T01:44:35.781Z,24.62
2018-08-04T01:47:06.304Z,24.87
2018-08-04T01:49:37.000Z,24.66
2018-08-04T01:52:07.460Z,24.76
2018-08-04T01:54:37.989Z,24.61
2018-08-04T01:57:08.569Z,24.56
2018-08-04T01:59:38.810Z,24.63
2018-08-04T02:02:13.644Z,24.55
2018-08-04T02:04:43.911Z,24.81
2018-08-04T02:07:14.261Z,24.68
2018-08-04T02:09:44.721Z,24.57
2018-08-04T02:12:15.333Z,24.53
2018-08-04T02:14:45.817Z,24.42
2018-08-04T02:17:16.468Z,24.42
2018-08-04T02:19:47.032Z,24.21
2018-08-04T02:22:17.804Z,24.16
2018-08-04T02:24:48.311Z,24.21
2018-08-04T02:27:19.148Z,24.03
2018-08-04T02:29:49.768Z,24.13
2018-08-04T02:32:20.562Z,24.13
2018-08-04T02:34:51.150Z,24.19
2018-08-04T02:37:21.753Z,24.02
2018-08-04T02:39:52.500Z,24.28
2018-08-04T02:42:23.385Z,24.10
2018-08-04T02:44:54.130Z,24.00
2018-08-04T02:47:24.844Z,23.98
2018-08-04T02:49:55.553Z,23.87
2018-08-04T02:52:26.345Z,23.96
2018-08-04T02:54:57.157Z,24.00
2018-08-04T02:57:27.907Z,23.61
2018-08-04T02:59:59.441Z,23.78
2018-08-04T03:02:30.157Z,24.04
2018-08-04T03:05:00.685Z,23.56
2018-08-04T03:07:31.553Z,23.60
2018-08-04T03:10:02.285Z,23.55
2018-08-04T03:12:33.135Z,23.70
2018-08-04T03:15:03.792Z,23.83
2018-08-04T03:17:34.505Z,23.78
2018-08-04T03:20:06.423Z,24.08
2018-08-04T03:22:37.509Z,23.82
2018-08-04T03:25:08.449Z,23.97
2018-08-04T03:27:38.970Z,24.13
2018-08-04T03:30:09.652Z,24.13
2018-08-04T03:32:40.240Z,24.14
2018-08-04T03:35:11.076Z,24.34
2018-08-04T03:37:41.982Z,24.30
2018-08-04T03:40:12.622Z,24.10
2018-08-04T03:42:43.462Z,24.10
2018-08-04T03:45:14.120Z,24.28
2018-08-04T03:47:44.591Z,24.41
2018-08-04T03:50:15.181Z,24.49
2018-08-04T03:52:46.006Z,24.42
2018-08-04T03:55:16.748Z,24.43
2018-08-04T03:57:47.711Z,24.60
2018-08-04T04:00:17.936Z,24.48
2018-08-04T04:02:48.846Z,24.84
2018-08-04T04:05:19.428Z,25.08
2018-08-04T04:07:50.128Z,24.91
2018-08-04T04:10:20.821Z,25.38
2018-08-04T04:12:51.634Z,25.07
2018-08-04T04:15:21.921Z,25.40
2018-08-04T04:17:52.279Z,25.41
2018-08-04T04:20:22.648Z,25.18
2018-08-04T04:22:53.460Z,25.18
2018-08-04T04:25:24.129Z,25.46
2018-08-04T04:27:54.874Z,25.55
2018-08-04T04:30:25.461Z,25.25
2018-08-04T04:32:56.264Z,25.48
2018-08-04T04:35:26.816Z,25.43
2018-08-04T04:37:57.128Z,25.43
2018-08-04T04:40:27.765Z,26.20
2018-08-04T04:42:58.449Z,27.04
2018-08-04T04:45:28.957Z,27.22
2018-08-04T04:47:59.712Z,27.80
2018-08-04T04:50:30.493Z,27.87
2018-08-04T04:53:01.174Z,27.37
2018-08-04T04:55:31.907Z,27.36
2018-08-04T04:58:02.612Z,26.94
2018-08-04T05:00:33.333Z,27.02
2018-08-04T05:03:04.185Z,27.46
2018-08-04T05:05:34.884Z,28.22
2018-08-04T05:08:06.031Z,29.13
2018-08-04T05:10:36.612Z,29.64
2018-08-04T05:13:07.793Z,28.58
2018-08-04T05:15:38.442Z,28.92
2018-08-04T05:18:09.169Z,30.02
2018-08-04T05:20:39.816Z,29.92
2018-08-04T05:23:10.605Z,30.05
2018-08-04T05:25:40.837Z,30.06
2018-08-04T05:28:11.658Z,30.14
2018-08-04T05:30:42.337Z,29.72
2018-08-04T05:33:14.076Z,29.40
2018-08-04T05:35:44.724Z,29.91
2018-08-04T05:38:15.465Z,30.40
2018-08-04T05:40:46.090Z,31.12
2018-08-04T05:43:16.733Z,30.70
2018-08-04T05:45:47.462Z,30.71
2018-08-04T05:48:18.195Z,31.45
2018-08-04T05:50:48.760Z,31.32
2018-08-04T05:53:19.540Z,31.22
2018-08-04T05:55:49.925Z,31.53
2018-08-04T05:58:20.496Z,31.72
2018-08-04T06:00:51.074Z,32.23
2018-08-04T06:03:21.824Z,31.84
2018-08-04T06:05:52.460Z,32.37
2018-08-04T06:08:23.813Z,32.39
2018-08-04T06:10:54.497Z,32.37
2018-08-04T06:13:33.386Z,32.89
2018-08-04T06:16:04.257Z,32.99
2018-08-04T06:18:35.211Z,32.70
2018-08-04T06:21:06.157Z,32.25
2018-08-04T06:23:36.572Z,32.69
2018-08-04T06:26:07.260Z,32.86
2018-08-04T06:28:37.862Z,32.68
2018-08-04T06:31:08.518Z,33.04
2018-08-04T06:33:39.454Z,33.27
2018-08-04T06:36:11.623Z,33.46
2018-08-04T06:38:42.877Z,33.83
2018-08-04T06:41:13.565Z,33.75
2018-08-04T06:43:44.507Z,33.91
2018-08-04T06:46:15.042Z,33.45
2018-08-04T06:48:46.041Z,34.45
2018-08-04T06:51:16.792Z,34.02
2018-08-04T06:53:47.488Z,34.34
2018-08-04T06:56:18.010Z,35.18
2018-08-04T06:58:48.772Z,34.63
2018-08-04T07:01:19.537Z,34.66
2018-08-04T07:03:50.533Z,35.09
2018-08-04T07:06:21.212Z,35.18
2018-08-04T07:08:51.872Z,36.12
2018-08-04T07:11:22.618Z,35.38
2018-08-04T07:13:53.305Z,35.19
2018-08-04T07:16:23.585Z,35.55
2018-08-04T07:18:54.758Z,35.56
2018-08-04T07:21:26.139Z,35.05
2018-08-04T07:23:57.528Z,35.15
2018-08-04T07:26:28.067Z,35.57
2018-08-04T07:28:58.847Z,34.97
2018-08-04T07:31:29.105Z,36.06
2018-08-04T07:34:02.105Z,36.45
2018-08-04T07:36:32.627Z,36.24
2018-08-04T07:39:03.569Z,37.33
2018-08-04T07:41:34.473Z,36.54
2018-08-04T07:44:05.732Z,36.61
2018-08-04T07:46:37.257Z,36.54
2018-08-04T07:49:08.185Z,36.68
2018-08-04T07:51:38.863Z,36.19
2018-08-04T07:54:09.848Z,35.70
2018-08-04T07:56:40.408Z,36.58
2018-08-04T07:59:11.263Z,35.57
2018-08-04T08:01:41.846Z,36.29
2018-08-04T08:04:12.628Z,36.90
2018-08-04T08:06:43.159Z,36.55
2018-08-04T08:09:14.099Z,36.98
2018-08-04T08:11:44.874Z,36.92
2018-08-04T08:14:15.701Z,35.99
2018-08-04T08:16:46.400Z,36.00
2018-08-04T08:19:17.064Z,36.03
2018-08-04T08:21:47.679Z,36.78
2018-08-04T08:24:18.738Z,36.89
2018-08-04T08:26:49.535Z,37.23
2018-08-04T08:29:20.488Z,37.45
2018-08-04T08:31:51.329Z,37.35
2018-08-04T08:34:21.993Z,37.22
2018-08-04T08:36:52.348Z,38.01
2018-08-04T08:39:22.693Z,37.44
2018-08-04T08:41:53.284Z,36.66
2018-08-04T08:44:24.025Z,37.15
2018-08-04T08:46:54.708Z,37.73
2018-08-04T08:49:25.504Z,37.98
2018-08-04T08:51:56.313Z,36.38
2018-08-04T08:54:26.883Z,37.53
2018-08-04T08:56:57.468Z,37.35
2018-08-04T08:59:28.085Z,37.39
2018-08-04T09:01:58.724Z,38.23
2018-08-04T09:04:29.322Z,37.68
2018-08-04T09:06:59.836Z,36.93
2018-08-04T09:09:30.598Z,37.90
2018-08-04T09:12:01.320Z,37.54
2018-08-04T09:14:32.117Z,38.41
2018-08-04T09:17:02.728Z,38.45
2018-08-04T09:19:33.413Z,38.71
2018-08-04T09:22:04.194Z,39.05
2018-08-04T09:24:35.061Z,38.25
2018-08-04T09:27:05.776Z,37.96
2018-08-04T09:29:36.680Z,38.31
2018-08-04T09:32:07.096Z,39.47
2018-08-04T09:34:38.058Z,38.07
2018-08-04T09:37:08.853Z,38.43
2018-08-04T09:39:39.464Z,38.09
2018-08-04T09:42:10.225Z,37.93
2018-08-04T09:44:41.012Z,38.12
2018-08-04T09:47:11.583Z,38.28
2018-08-04T09:49:42.557Z,38.62
2018-08-04T09:52:12.703Z,40.21
2018-08-04T09:54:43.434Z,39.57
2018-08-04T09:57:14.003Z,40.02
2018-08-04T09:59:44.698Z,40.19
2018-08-04T10:02:19.246Z,40.50
2018-08-04T10:04:49.936Z,38.83
2018-08-04T10:07:47.990Z,39.96
2018-08-04T10:10:18.544Z,38.77
2018-08-04T10:12:48.841Z,36.57
2018-08-04T10:15:19.232Z,36.29
2018-08-04T10:17:49.894Z,36.36
2018-08-04T10:20:20.726Z,38.17
2018-08-04T10:22:51.253Z,39.58
2018-08-04T10:25:22.205Z,39.81
2018-08-04T10:27:52.488Z,39.73
2018-08-04T10:30:22.979Z,38.47
2018-08-04T10:32:54.201Z,39.26
2018-08-04T10:35:24.851Z,39.60
2018-08-04T10:37:55.558Z,40.14
2018-08-04T10:40:26.350Z,40.00
2018-08-04T10:42:57.176Z,40.80
2018-08-04T10:45:27.851Z,40.44
2018-08-04T10:47:58.762Z,40.00
2018-08-04T10:50:29.528Z,40.17
2018-08-04T10:53:00.249Z,39.05
2018-08-04T10:55:31.033Z,39.90
2018-08-04T10:58:01.782Z,40.97
2018-08-04T11:00:32.484Z,39.67
2018-08-04T11:03:03.366Z,40.70
2018-08-04T11:05:34.014Z,39.75
2018-08-04T11:08:04.861Z,40.60
2018-08-04T11:10:36.030Z,41.97
2018-08-04T11:13:07.005Z,42.46
2018-08-04T11:15:37.649Z,41.64
2018-08-04T11:18:08.505Z,39.82
2018-08-04T11:20:39.149Z,39.37
2018-08-04T11:23:10.295Z,38.19
2018-08-04T11:25:40.816Z,36.78
2018-08-04T11:28:11.484Z,37.09
2018-08-04T11:30:42.160Z,36.83
2018-08-04T11:33:13.020Z,36.88
2018-08-04T11:35:43.842Z,37.22
2018-08-04T11:38:14.801Z,36.65
2018-08-04T11:40:45.605Z,36.54
2018-08-04T11:43:16.649Z,36.98
2018-08-04T11:45:47.296Z,39.59
2018-08-04T11:48:18.286Z,38.74
2018-08-04T11:50:48.937Z,39.69
2018-08-04T11:53:19.873Z,40.56
2018-08-04T11:55:50.502Z,41.70
2018-08-04T11:58:21.169Z,39.98
2018-08-04T12:00:51.797Z,41.56
2018-08-04T12:03:22.675Z,41.34
2018-08-04T12:05:53.292Z,40.74
2018-08-04T12:08:24.064Z,41.39
2018-08-04T12:10:55.149Z,42.52
2018-08-04T12:13:25.953Z,42.50
2018-08-04T12:15:56.521Z,42.29
2018-08-04T12:18:27.386Z,42.15
2018-08-04T12:20:58.127Z,41.62
2018-08-04T12:23:29.016Z,42.09
2018-08-04T12:25:59.684Z,43.24
2018-08-04T12:28:30.493Z,43.47
2018-08-04T12:31:00.657Z,42.13
2018-08-04T12:33:31.346Z,42.10
2018-08-04T12:36:01.969Z,39.98
2018-08-04T12:38:32.739Z,40.17
2018-08-04T12:41:03.333Z,39.56
2018-08-04T12:43:34.154Z,39.34
2018-08-04T12:46:04.737Z,38.20
2018-08-04T12:48:35.554Z,38.91
2018-08-04T12:51:06.282Z,39.36
2018-08-04T12:53:36.992Z,38.79
2018-08-04T12:56:07.872Z,37.76
2018-08-04T12:58:38.505Z,37.55
2018-08-04T13:01:09.224Z,37.62
2018-08-04T13:03:40.045Z,38.40
2018-08-04T13:06:10.753Z,38.73
2018-08-04T13:08:41.494Z,37.76
2018-08-04T13:11:12.156Z,39.17
2018-08-04T13:13:42.904Z,39.05
2018-08-04T13:16:13.581Z,37.90
2018-08-04T13:18:45.051Z,37.26
2018-08-04T13:21:15.589Z,37.58
2018-08-04T13:23:46.228Z,37.58
2018-08-04T13:26:16.768Z,37.72
2018-08-04T13:28:47.472Z,39.52
2018-08-04T13:31:18.189Z,39.66
2018-08-04T13:33:48.940Z,40.94
2018-08-04T13:36:19.661Z,38.70
2018-08-04T13:38:50.637Z,37.62
2018-08-04T13:41:21.406Z,36.83
2018-08-04T13:43:52.141Z,36.65
2018-08-04T13:46:22.741Z,36.61
2018-08-04T13:48:53.571Z,36.74
2018-08-04T13:51:24.128Z,36.77
2018-08-04T13:53:54.849Z,36.20
2018-08-04T13:56:25.521Z,36.33
2018-08-04T13:58:56.336Z,36.59
2018-08-04T14:01:26.901Z,38.31
2018-08-04T14:03:57.730Z,39.56
2018-08-04T14:06:28.718Z,39.88
2018-08-04T14:08:59.637Z,40.91
2018-08-04T14:11:30.224Z,39.79
2018-08-04T14:14:01.017Z,39.03
2018-08-04T14:16:31.704Z,38.40
2018-08-04T14:19:02.475Z,37.25
2018-08-04T14:21:33.174Z,36.90
2018-08-04T14:24:04.337Z,36.63
2018-08-04T14:26:34.611Z,36.39
2018-08-04T14:29:05.322Z,36.77
2018-08-04T14:31:36.050Z,37.10
2018-08-04T14:34:06.910Z,37.79
2018-08-04T14:36:37.544Z,36.99
2018-08-04T14:39:13.616Z,38.01
2018-08-04T14:41:44.177Z,38.99
2018-08-04T14:44:14.583Z,40.32
2018-08-04T14:46:45.242Z,40.45
2018-08-04T14:49:16.310Z,41.24
2018-08-04T14:51:46.982Z,40.90
2018-08-04T14:54:17.696Z,40.14
2018-08-04T14:56:48.213Z,39.98
2018-08-04T14:59:18.997Z,40.23
2018-08-04T15:01:49.567Z,39.24
2018-08-04T15:04:20.422Z,38.94
2018-08-04T15:06:51.016Z,37.79
2018-08-04T15:09:22.140Z,37.30
2018-08-04T15:11:52.849Z,37.07
2018-08-04T15:14:23.545Z,37.67
2018-08-04T15:16:54.229Z,38.28
2018-08-04T15:19:25.116Z,37.76
2018-08-04T15:21:55.732Z,37.40
2018-08-04T15:24:26.497Z,36.82
2018-08-04T15:26:57.293Z,36.68
2018-08-04T15:29:27.999Z,36.52
2018-08-04T15:31:58.653Z,36.87
2018-08-04T15:34:29.407Z,36.73
2018-08-04T15:37:00.083Z,36.20
2018-08-04T15:39:30.784Z,36.02
2018-08-04T15:42:01.453Z,35.62
2018-08-04T15:44:32.295Z,35.71
2018-08-04T15:47:03.014Z,35.71
2018-08-04T15:49:33.913Z,35.78
2018-08-04T15:52:04.528Z,36.62
2018-08-04T15:54:35.312Z,37.20
2018-08-04T15:57:06.072Z,37.17
2018-08-04T15:59:36.913Z,37.11
2018-08-04T16:02:07.762Z,37.28
2018-08-04T16:04:38.417Z,36.78
2018-08-04T16:07:09.268Z,36.85
2018-08-04T16:09:39.921Z,36.93
2018-08-04T16:12:10.572Z,36.80
2018-08-04T16:14:41.443Z,36.55
2018-08-04T16:17:12.013Z,36.41
2018-08-04T16:19:42.701Z,36.23
2018-08-04T16:22:13.332Z,36.32
2018-08-04T16:24:44.193Z,36.49
2018-08-04T16:27:14.749Z,36.10
2018-08-04T16:29:46.009Z,36.05
2018-08-04T16:32:16.732Z,35.53
2018-08-04T16:34:47.408Z,35.44
2018-08-04T16:37:17.956Z,35.34
2018-08-04T16:39:48.621Z,35.02
2018-08-04T16:42:19.244Z,34.92
2018-08-04T16:44:49.978Z,34.73
2018-08-04T16:47:20.673Z,34.60
2018-08-04T16:49:51.498Z,34.50
2018-08-04T16:52:22.148Z,34.29
2018-08-04T16:54:52.857Z,34.15
2018-08-04T16:57:23.483Z,34.00
2018-08-04T16:59:54.333Z,33.80
2018-08-04T17:02:24.953Z,33.66
2018-08-04T17:04:55.841Z,33.27
2018-08-04T17:07:26.417Z,33.40
2018-08-04T17:09:57.101Z,33.20
2018-08-04T17:12:27.996Z,33.07
2018-08-04T17:14:58.797Z,32.85
2018-08-04T17:17:29.421Z,32.81
2018-08-04T17:20:00.137Z,32.60
2018-08-04T17:22:30.704Z,32.72
2018-08-04T17:25:01.521Z,32.83
2018-08-04T17:27:32.141Z,32.47
2018-08-04T17:30:02.788Z,32.32
2018-08-04T17:32:33.814Z,32.11
2018-08-04T17:35:04.537Z,31.94
2018-08-04T17:37:35.439Z,31.80
2018-08-04T17:40:05.908Z,31.53
2018-08-04T17:42:36.621Z,31.42
2018-08-04T17:45:07.862Z,31.46
2018-08-04T17:47:38.541Z,31.30
2018-08-04T17:50:09.412Z,31.26
2018-08-04T17:52:40.080Z,30.88
2018-08-04T17:55:10.700Z,31.06
2018-08-04T17:57:41.369Z,31.13
2018-08-04T18:00:12.221Z,30.97
2018-08-04T18:02:42.927Z,31.08
2018-08-04T18:05:13.778Z,31.26
2018-08-04T18:07:44.495Z,31.44
2018-08-04T18:10:15.318Z,31.54
2018-08-04T18:12:45.892Z,31.47
2018-08-04T18:15:16.616Z,31.35
2018-08-04T18:17:47.313Z,31.59
2018-08-04T18:20:18.005Z,31.46
2018-08-04T18:22:48.629Z,31.63
2018-08-04T18:25:19.577Z,31.70
2018-08-04T18:27:50.355Z,31.71
2018-08-04T18:30:21.190Z,31.78
2018-08-04T18:32:51.766Z,31.61
2018-08-04T18:35:22.513Z,31.54
2018-08-04T18:37:52.774Z,31.73
2018-08-04T18:40:23.325Z,31.71
2018-08-04T18:42:54.037Z,31.56
2018-08-04T18:45:24.579Z,31.71
2018-08-04T18:47:55.029Z,31.51
2018-08-04T18:50:25.584Z,31.34
2018-08-04T18:52:56.343Z,31.65
2018-08-04T18:55:27.117Z,31.78
2018-08-04T18:57:57.831Z,31.61
2018-08-04T19:00:28.602Z,31.72
2018-08-04T19:02:59.125Z,31.63
2018-08-04T19:05:29.993Z,31.82
2018-08-04T19:08:00.708Z,31.83
2018-08-04T19:10:31.394Z,31.67
2018-08-04T19:13:02.410Z,31.64
2018-08-04T19:15:33.109Z,31.78
2018-08-04T19:18:03.234Z,31.77
2018-08-04T19:20:34.060Z,31.72
2018-08-04T19:23:04.889Z,31.61
2018-08-04T19:25:35.569Z,31.07
2018-08-04T19:28:06.239Z,30.73
2018-08-04T19:30:37.062Z,30.63
2018-08-04T19:33:07.882Z,30.51
2018-08-04T19:35:38.800Z,30.51
2018-08-04T19:38:09.537Z,30.46
2018-08-04T19:40:40.373Z,30.70
2018-08-04T19:43:11.039Z,30.63
2018-08-04T19:45:41.676Z,30.54
2018-08-04T19:48:12.379Z,30.32
2018-08-04T19:50:43.246Z,30.50
2018-08-04T19:53:13.801Z,30.95
2018-08-04T19:55:44.680Z,30.99
2018-08-04T19:58:15.327Z,31.10
2018-08-04T20:00:46.048Z,30.77
2018-08-04T20:03:16.713Z,30.95
2018-08-04T20:05:47.597Z,31.31
2018-08-04T20:08:18.204Z,31.20
2018-08-04T20:10:49.037Z,30.85
2018-08-04T20:13:19.685Z,31.13
2018-08-04T20:15:50.689Z,30.87
2018-08-04T20:18:21.391Z,31.05
2018-08-04T20:20:52.112Z,31.14
2018-08-04T20:23:22.722Z,30.84
2018-08-04T20:25:53.616Z,30.49
2018-08-04T20:28:24.329Z,30.65
2018-08-04T20:30:55.171Z,30.36
2018-08-04T20:33:25.898Z,30.05
2018-08-04T20:35:56.726Z,29.04
2018-08-04T20:38:27.320Z,29.01
2018-08-04T20:40:57.986Z,29.00
2018-08-04T20:43:28.634Z,29.07
2018-08-04T20:45:59.414Z,29.40
2018-08-04T20:48:29.925Z,29.53
2018-08-04T20:51:00.573Z,29.40
2018-08-04T20:53:31.948Z,29.39
2018-08-04T20:56:02.620Z,29.52
2018-08-04T20:58:33.230Z,29.34
2018-08-04T21:02:14.978Z,29.46
2018-08-04T21:04:45.445Z,29.40
2018-08-04T21:07:16.169Z,29.38
2018-08-04T21:09:46.747Z,29.39
2018-08-04T21:12:17.871Z,29.36
2018-08-04T21:14:48.413Z,29.36
2018-08-04T21:17:19.201Z,29.29
2018-08-04T21:19:49.853Z,29.16
2018-08-04T21:22:20.613Z,28.86
2018-08-04T21:24:51.246Z,28.81
2018-08-04T21:27:22.026Z,28.92
2018-08-04T21:29:52.630Z,29.27
2018-08-04T21:32:23.321Z,29.05
2018-08-04T21:34:53.689Z,29.03
2018-08-04T21:37:24.488Z,29.17
2018-08-04T21:39:55.240Z,29.17
2018-08-04T21:42:26.029Z,29.23
2018-08-04T21:44:56.626Z,29.13
2018-08-04T21:47:27.493Z,28.48
2018-08-04T21:49:58.143Z,28.67
2018-08-04T21:52:28.880Z,28.68
2018-08-04T21:54:59.617Z,28.64
2018-08-04T21:57:30.338Z,28.52
2018-08-04T22:00:01.021Z,28.34
2018-08-04T22:02:31.556Z,28.23
2018-08-04T22:05:02.425Z,27.83
2018-08-04T22:08:49.193Z,28.03
2018-08-04T22:11:19.961Z,28.10
2018-08-04T22:13:50.613Z,28.18
2018-08-04T22:16:21.228Z,28.00
2018-08-04T22:18:51.977Z,28.02
2018-08-04T22:21:22.737Z,28.09
2018-08-04T22:23:53.809Z,28.06
2018-08-04T22:26:24.609Z,28.12
2018-08-04T22:28:55.222Z,27.90
2018-08-04T22:31:26.062Z,28.11
2018-08-04T22:33:56.640Z,27.92
2018-08-04T22:36:27.436Z,27.90
2018-08-04T22:38:58.008Z,27.97
2018-08-04T22:41:28.846Z,28.02
2018-08-04T22:43:59.521Z,27.97
2018-08-04T22:46:30.289Z,27.82
2018-08-04T22:49:00.944Z,27.66
2018-08-04T22:51:31.549Z,27.83
2018-08-04T22:54:02.076Z,27.85
2018-08-04T22:56:33.144Z,27.35
2018-08-04T22:59:03.776Z,27.41
2018-08-04T23:01:34.035Z,27.34
2018-08-04T23:04:04.653Z,26.59
2018-08-04T23:06:35.314Z,26.59
2018-08-04T23:09:07.629Z,26.82
2018-08-04T23:11:40.152Z,26.86
2018-08-04T23:14:11.140Z,26.89
2018-08-04T23:16:41.863Z,26.85
2018-08-04T23:19:12.012Z,26.83
2018-08-04T23:21:42.900Z,26.96
2018-08-04T23:24:13.329Z,27.00
2018-08-04T23:26:43.928Z,26.97
2018-08-04T23:29:14.584Z,26.99
2018-08-04T23:31:45.228Z,26.92
2018-08-04T23:34:15.768Z,26.86
2018-08-04T23:36:46.485Z,26.79
2018-08-04T23:39:17.097Z,26.56
2018-08-04T23:41:47.808Z,26.80
2018-08-04T23:44:18.496Z,26.96
2018-08-04T23:46:49.545Z,26.71
2018-08-04T23:49:20.224Z,26.76
2018-08-04T23:51:51.115Z,26.62
2018-08-04T23:54:21.740Z,26.67
2018-08-04T23:56:53.509Z,26.77
2018-08-04T23:59:23.736Z,26.72
